Time;durP1;ratioP1;P1;durP2;ratioP2;P2;SDS_P1;SDS_P2;PMS_P1;PMS_P2;Temp;Humidity;BMP_temperature;BMP_pressure;BME280_temperature;BME280_humidity;BME280_pressure;Samples;Min_cycle;Max_cycle;Signal;HPM_P1;HPM_P2
2022/04/20 00:01:37;;;;;;;6.47;4.72;;;;;;;5.60;60.88;99677.69;4354230;32;33931;-83
2022/04/20 00:04:05;;;;;;;6.35;5.12;;;;;;;5.71;60.51;99673.06;4354088;32;34390;-82
2022/04/20 00:06:33;;;;;;;7.00;5.32;;;;;;;5.64;60.83;99672.34;4330697;32;33982;-82
2022/04/20 00:09:01;;;;;;;8.32;5.53;;;;;;;5.67;61.14;99676.66;4362331;32;34463;-83
2022/04/20 00:11:29;;;;;;;7.97;5.95;;;;;;;5.68;61.29;99678.38;4355519;32;34723;-82
2022/04/20 00:13:57;;;;;;;8.10;5.65;;;;;;;5.73;61.35;99671.25;4354512;32;34566;-83
2022/04/20 00:16:25;;;;;;;7.60;5.22;;;;;;;5.78;61.36;99678.97;4341551;32;32323;-82
2022/04/20 00:18:53;;;;;;;8.63;4.82;;;;;;;5.67;61.74;99674.03;4349177;32;33467;-84
2022/04/20 00:21:27;;;;;;;9.98;5.30;;;;;;;5.90;61.08;99679.53;4338412;32;33049;-83
2022/04/20 00:23:55;;;;;;;7.32;5.35;;;;;;;5.78;61.56;99674.59;4354150;32;34172;-85
2022/04/20 00:26:23;;;;;;;7.80;5.45;;;;;;;5.79;61.69;99676.34;4342876;32;32294;-83
2022/04/20 00:28:50;;;;;;;11.50;5.57;;;;;;;5.60;62.44;99675.06;4353642;32;33912;-83
2022/04/20 00:31:19;;;;;;;8.93;6.35;;;;;;;5.67;62.98;99675.78;4343044;32;34799;-83
2022/04/20 00:33:47;;;;;;;11.82;6.45;;;;;;;5.90;62.12;99669.06;4356059;32;33859;-83
2022/04/20 00:36:17;;;;;;;8.27;5.53;;;;;;;6.00;61.81;99668.84;4353719;32;34092;-84
2022/04/20 00:38:45;;;;;;;9.20;5.70;;;;;;;6.02;61.87;99672.25;4354914;32;33871;-83
2022/04/20 00:41:16;;;;;;;10.68;6.10;;;;;;;5.81;62.59;99677.16;4362142;32;34026;-84
2022/04/20 00:43:45;;;;;;;7.72;5.80;;;;;;;5.92;62.45;99666.41;4329756;32;33344;-83
2022/04/20 00:46:14;;;;;;;6.75;5.68;;;;;;;6.02;61.95;99667.88;4353963;32;33408;-83
2022/04/20 00:48:44;;;;;;;7.65;5.65;;;;;;;6.08;61.63;99672.97;4362008;32;33497;-83
2022/04/20 00:51:12;;;;;;;7.25;5.55;;;;;;;6.13;61.28;99670.22;4348477;32;32793;-83
2022/04/20 00:53:40;;;;;;;9.23;5.47;;;;;;;6.09;61.01;99668.59;4328374;32;33039;-83
2022/04/20 00:56:09;;;;;;;9.13;5.80;;;;;;;6.08;60.85;99670.34;4360577;32;34329;-83
2022/04/20 00:58:40;;;;;;;8.00;5.72;;;;;;;6.02;60.93;99677.50;4354030;32;33730;-82
2022/04/20 01:01:08;;;;;;;9.23;5.57;;;;;;;5.88;61.18;99683.94;4342322;32;32984;-82
2022/04/20 01:03:36;;;;;;;8.95;6.03;;;;;;;6.09;60.53;99679.06;4343374;32;35202;-83
2022/04/20 01:06:06;;;;;;;6.82;5.05;;;;;;;5.90;60.99;99684.78;4355273;32;33544;-82
2022/04/20 01:08:35;;;;;;;5.85;4.97;;;;;;;5.97;60.73;99685.50;4354150;32;33477;-82
2022/04/20 01:11:05;;;;;;;8.18;5.62;;;;;;;6.05;60.34;99678.28;4340575;32;33918;-82
2022/04/20 01:13:33;;;;;;;6.62;5.18;;;;;;;5.80;60.66;99685.06;4329155;32;33518;-82
2022/04/20 01:16:02;;;;;;;7.15;5.78;;;;;;;5.77;60.80;99690.38;4355304;32;33002;-82
2022/04/20 01:18:30;;;;;;;8.23;5.82;;;;;;;5.72;60.80;99684.41;4355576;32;32773;-82
2022/04/20 01:20:59;;;;;;;8.88;5.65;;;;;;;5.78;60.59;99685.09;4355201;32;34073;-82
2022/04/20 01:23:27;;;;;;;6.90;5.15;;;;;;;5.67;60.57;99687.13;4338828;32;32614;-82
2022/04/20 01:25:58;;;;;;;7.95;5.45;;;;;;;5.79;60.25;99691.19;4353620;32;34154;-82
2022/04/20 01:28:27;;;;;;;9.23;6.28;;;;;;;5.84;59.94;99684.94;4353872;32;34265;-82
2022/04/20 01:30:55;;;;;;;9.55;5.37;;;;;;;5.83;59.78;99685.81;4355581;32;33754;-82
2022/04/20 01:33:23;;;;;;;8.25;5.03;;;;;;;5.56;60.20;99689.16;4352967;32;33466;-82
2022/04/20 01:35:52;;;;;;;9.10;6.10;;;;;;;5.71;59.88;99694.00;4341721;32;33109;-82
2022/04/20 01:38:23;;;;;;;9.93;5.43;;;;;;;5.68;59.93;99698.47;4353349;32;33868;-83
2022/04/20 01:40:54;;;;;;;7.95;5.22;;;;;;;5.67;60.13;99697.59;4330227;32;33280;-83
2022/04/20 01:43:22;;;;;;;6.00;5.37;;;;;;;5.58;60.48;99697.84;4353203;32;34315;-82
2022/04/20 01:45:51;;;;;;;5.00;4.50;;;;;;;5.40;61.37;99702.63;4341874;32;33259;-81
2022/04/20 01:48:21;;;;;;;6.35;5.32;;;;;;;5.34;61.21;99697.53;4354166;32;33572;-82
2022/04/20 01:53:37;;;;;;;7.87;4.65;;;;;;;5.45;61.16;99699.03;4342403;32;32755;-82
2022/04/20 01:56:06;;;;;;;6.60;5.20;;;;;;;5.60;60.36;99696.91;4361318;32;33110;-83
2022/04/20 01:58:35;;;;;;;8.20;5.05;;;;;;;5.30;61.56;99692.41;4354187;32;33629;-84
2022/04/20 02:02:34;;;;;;;8.20;6.07;;;;;;;5.45;60.80;99693.78;4353888;32;33948;-84
2022/04/20 02:03:53;;;;;;;7.78;5.22;;;;;;;5.38;60.69;99695.72;4350384;32;33097;-84
2022/04/20 02:06:21;;;;;;;8.23;5.50;;;;;;;5.29;60.69;99690.69;4341168;32;33380;-83
2022/04/20 02:08:49;;;;;;;6.35;5.03;;;;;;;5.44;60.23;99697.31;4355048;32;33610;-84
2022/04/20 02:11:17;;;;;;;7.85;5.37;;;;;;;5.36;60.33;99692.25;4355223;32;33846;-83
2022/04/20 02:13:46;;;;;;;6.03;4.85;;;;;;;5.25;60.50;99684.66;4354745;32;34144;-84
2022/04/20 02:16:15;;;;;;;6.22;5.05;;;;;;;5.33;60.34;99682.72;4352995;32;33351;-84
2022/04/20 02:18:44;;;;;;;9.32;5.78;;;;;;;5.36;60.29;99687.00;4354918;32;33560;-84
2022/04/20 02:21:13;;;;;;;7.25;5.00;;;;;;;5.08;60.90;99689.44;4355203;32;33989;-82
2022/04/20 02:23:41;;;;;;;7.35;5.05;;;;;;;5.30;60.29;99681.94;4341498;32;33065;-83
2022/04/20 02:26:09;;;;;;;8.93;5.12;;;;;;;5.13;60.73;99687.59;4353601;32;33335;-83
2022/04/20 02:28:37;;;;;;;6.70;5.12;;;;;;;5.23;60.50;99685.62;4354644;32;33580;-82
2022/04/20 02:31:07;;;;;;;7.65;4.93;;;;;;;5.29;60.32;99686.31;4352047;32;33885;-82
2022/04/20 02:33:35;;;;;;;5.93;4.72;;;;;;;5.10;60.98;99685.03;4347770;32;32694;-83
2022/04/20 02:36:05;;;;;;;9.45;5.57;;;;;;;5.14;60.86;99697.16;4347719;32;33469;-83
2022/04/20 02:38:37;;;;;;;6.45;5.10;;;;;;;5.18;60.96;99683.09;4335737;32;34894;-83
2022/04/20 02:41:07;;;;;;;9.88;5.47;;;;;;;5.21;60.87;99682.16;4347687;32;33647;-83
2022/04/20 02:43:35;;;;;;;8.13;6.07;;;;;;;5.11;61.43;99697.22;4347493;32;33585;-83
2022/04/20 02:46:06;;;;;;;9.25;5.60;;;;;;;5.18;61.21;99685.72;4351614;32;32885;-83
2022/04/20 02:48:35;;;;;;;7.57;5.47;;;;;;;5.11;61.46;99689.37;4343579;32;34039;-82
2022/04/20 02:51:03;;;;;;;7.95;5.62;;;;;;;5.04;61.82;99685.19;4355486;32;33230;-82
2022/04/20 02:53:36;;;;;;;7.65;6.00;;;;;;;5.13;61.71;99691.06;4342750;32;33951;-82
2022/04/20 02:56:04;;;;;;;11.25;5.43;;;;;;;5.00;62.27;99686.16;4361067;32;33417;-82
2022/04/20 02:58:33;;;;;;;7.57;5.68;;;;;;;4.98;62.16;99686.16;4342238;32;32755;-82
2022/04/20 03:01:01;;;;;;;8.73;5.55;;;;;;;5.14;61.88;99694.53;4356186;32;34258;-83
2022/04/20 03:03:30;;;;;;;8.13;5.35;;;;;;;5.14;61.68;99687.53;4355086;32;33604;-83
2022/04/20 03:05:59;;;;;;;6.72;5.32;;;;;;;5.13;61.81;99685.84;4355706;32;32631;-83
2022/04/20 03:08:29;;;;;;;7.12;5.28;;;;;;;5.24;61.44;99688.19;4356319;32;33562;-83
2022/04/20 03:10:58;;;;;;;8.73;5.68;;;;;;;5.38;60.89;99693.94;4355722;32;33041;-82
2022/04/20 03:13:26;;;;;;;7.28;5.53;;;;;;;5.24;61.25;99701.28;4341070;32;33592;-82
2022/04/20 03:15:55;;;;;;;8.40;5.87;;;;;;;5.38;60.90;99706.19;4342258;32;32420;-82
2022/04/20 03:18:24;;;;;;;6.97;4.57;;;;;;;5.29;60.96;99699.41;4353677;32;32848;-82
2022/04/20 03:20:55;;;;;;;6.03;5.12;;;;;;;4.91;61.97;99699.44;4366841;32;34758;-82
2022/04/20 03:23:24;;;;;;;7.90;4.93;;;;;;;5.16;61.40;99697.13;4356543;32;33541;-83
2022/04/20 03:25:53;;;;;;;7.37;4.90;;;;;;;5.26;61.01;99699.47;4356696;32;34352;-83
2022/04/20 03:28:27;;;;;;;8.10;5.32;;;;;;;5.17;61.16;99696.22;4343119;32;33901;-83
2022/04/20 03:30:57;;;;;;;8.60;5.57;;;;;;;5.16;61.28;99703.19;4343021;32;33146;-83
2022/04/20 03:33:30;;;;;;;9.73;5.53;;;;;;;5.05;61.60;99713.06;4355001;32;34554;-84
2022/04/20 03:35:59;;;;;;;7.57;5.87;;;;;;;5.10;61.43;99714.69;4342639;32;32338;-83
2022/04/20 03:38:28;;;;;;;8.68;5.53;;;;;;;5.13;61.36;99711.16;4354848;32;34476;-83
2022/04/20 03:40:56;;;;;;;9.13;5.60;;;;;;;5.00;61.73;99707.06;4356267;32;34027;-83
2022/04/20 03:43:24;;;;;;;7.70;5.65;;;;;;;5.06;61.49;99713.03;4352884;32;34841;-83
2022/04/20 03:45:52;;;;;;;12.82;5.72;;;;;;;5.16;61.37;99711.06;4332075;32;33720;-83
2022/04/20 03:48:22;;;;;;;7.30;5.05;;;;;;;4.97;62.06;99713.22;4353982;32;34713;-83
2022/04/20 03:50:51;;;;;;;7.85;5.68;;;;;;;5.05;62.15;99713.94;4344754;32;33541;-83
2022/04/20 03:53:20;;;;;;;10.73;6.15;;;;;;;5.17;61.97;99711.91;4363044;32;33797;-83
2022/04/20 03:55:49;;;;;;;7.35;5.53;;;;;;;5.14;62.23;99712.84;4349249;32;34756;-83
2022/04/20 03:58:18;;;;;;;8.05;5.62;;;;;;;5.18;62.16;99718.91;4348193;32;34559;-83
2022/04/20 04:00:47;;;;;;;8.60;5.45;;;;;;;5.04;62.87;99719.22;4360353;32;33841;-83
2022/04/20 04:03:16;;;;;;;6.43;5.37;;;;;;;5.12;62.87;99719.87;4372665;32;34252;-83
2022/04/20 04:05:47;;;;;;;8.82;6.20;;;;;;;5.31;62.47;99720.31;4354592;32;32759;-83
2022/04/20 04:08:20;;;;;;;7.70;5.72;;;;;;;5.23;63.31;99715.25;4354177;32;33630;-83
2022/04/20 04:10:50;;;;;;;;;;;;;;;5.21;63.88;99714.44;4353806;32;33946;-83
2022/04/20 04:13:19;;;;;;;10.60;6.82;;;;;;;5.04;65.37;99722.69;4343093;32;34580;-82
2022/04/20 04:15:54;;;;;;;11.25;7.78;;;;;;;5.30;64.84;99719.44;4345030;32;33380;-83
2022/04/20 04:18:22;;;;;;;13.73;7.95;;;;;;;5.38;64.81;99720.13;4362342;32;33364;-83
2022/04/20 04:20:51;;;;;;;10.63;7.53;;;;;;;5.60;64.23;99727.44;4342729;32;32961;-83
2022/04/20 04:23:19;;;;;;;11.98;8.07;;;;;;;5.88;63.40;99727.63;4354858;32;34134;-82
2022/04/20 04:25:49;;;;;;;12.57;8.18;;;;;;;5.93;63.33;99730.16;4355108;32;33495;-83
2022/04/20 04:28:23;;;;;;;12.57;8.45;;;;;;;5.87;63.28;99739.88;4354632;32;34280;-83
2022/04/20 04:30:52;;;;;;;10.48;8.18;;;;;;;5.99;63.24;99743.13;4355932;32;34058;-83
2022/04/20 04:33:21;;;;;;;13.60;8.80;;;;;;;6.32;62.64;99736.13;4349222;32;33496;-83
2022/04/20 04:35:52;;;;;;;15.30;8.65;;;;;;;6.32;62.60;99734.37;4349625;32;32396;-83
2022/04/20 04:38:23;;;;;;;13.40;8.13;;;;;;;6.48;62.58;99736.56;4348978;32;33597;-83
2022/04/20 04:40:55;;;;;;;14.55;7.57;;;;;;;6.59;62.47;99739.72;4348551;32;34050;-83
2022/04/20 04:43:25;;;;;;;11.35;8.23;;;;;;;6.57;62.27;99739.78;4354980;32;33739;-83
2022/04/20 04:48:43;;;;;;;13.57;8.18;;;;;;;6.83;61.66;99741.63;4355788;32;34132;-83
2022/04/20 04:51:18;;;;;;;13.23;7.25;;;;;;;7.01;61.09;99744.63;4355025;32;33666;-83
2022/04/20 04:53:48;;;;;;;12.30;7.78;;;;;;;6.94;60.67;99741.34;4347920;32;31753;-83
2022/04/20 04:56:22;;;;;;;9.43;7.22;;;;;;;6.78;61.51;99743.53;4349303;32;33506;-84
2022/04/20 04:59:03;;;;;;;11.18;7.65;;;;;;;6.96;60.62;99751.78;4353083;32;34607;-83
2022/04/20 05:01:32;;;;;;;16.58;9.90;;;;;;;7.11;60.11;99748.69;4353716;32;33774;-84
2022/04/20 05:04:05;;;;;;;15.70;9.68;;;;;;;7.12;59.98;99750.41;4354632;32;34201;-83
2022/04/20 05:06:37;;;;;;;11.95;8.35;;;;;;;7.18;59.90;99748.47;4354717;32;32202;-82
2022/04/20 05:09:10;;;;;;;13.73;8.27;;;;;;;7.09;60.15;99750.53;4356650;32;34593;-83
2022/04/20 05:11:40;;;;;;;13.07;7.68;;;;;;;7.11;60.25;99751.31;4343799;32;33273;-83
2022/04/20 05:14:13;;;;;;;10.30;7.12;;;;;;;6.88;61.21;99755.50;4341727;32;34092;-82
2022/04/20 05:16:46;;;;;;;9.93;7.28;;;;;;;6.96;61.19;99757.03;4355128;32;33579;-83
2022/04/20 05:24:31;;;;;;;12.30;8.32;;;;;;;7.47;60.07;99751.97;4366424;32;34309;-83
2022/04/20 05:26:59;;;;;;;15.00;8.93;;;;;;;7.44;60.23;99755.53;4366926;32;34106;-82
2022/04/20 05:29:29;;;;;;;11.20;8.05;;;;;;;7.80;59.25;99757.87;4352857;32;33147;-83
2022/04/20 05:31:59;;;;;;;8.82;7.32;;;;;;;7.47;59.96;99754.59;4329563;32;33307;-83
2022/04/20 05:34:33;;;;;;;8.07;6.20;;;;;;;7.47;59.94;99759.84;4353943;32;33905;-84
2022/04/20 05:42:47;;;;;;;8.55;6.40;;;;;;;7.80;59.35;99760.50;4363252;32;33715;-83
2022/04/20 05:45:17;;;;;;;9.93;6.87;;;;;;;7.88;59.20;99760.25;4355422;32;33248;-82
2022/04/20 05:47:48;;;;;;;11.32;6.85;;;;;;;8.19;58.32;99755.66;4342316;32;32640;-82
2022/04/20 05:50:16;;;;;;;11.88;7.55;;;;;;;7.96;59.04;99761.72;4352902;32;34873;-83
2022/04/20 05:52:45;;;;;;;9.38;6.68;;;;;;;7.82;59.88;99761.31;4354146;32;33134;-82
2022/04/20 05:55:14;;;;;;;8.50;6.50;;;;;;;8.14;59.19;99756.75;4341413;32;32678;-83
2022/04/20 05:57:47;;;;;;;6.55;5.65;;;;;;;8.52;58.04;99746.69;4353404;32;33966;-83
2022/04/20 06:00:21;;;;;;;9.85;6.82;;;;;;;8.54;57.73;99750.97;4352392;32;33789;-83
2022/04/20 06:02:54;;;;;;;8.77;6.72;;;;;;;9.03;56.97;99748.31;4356258;32;33884;-83
2022/04/20 06:05:28;;;;;;;8.05;6.53;;;;;;;9.40;56.50;99745.06;4351703;32;32442;-83
2022/04/20 06:07:59;;;;;;;8.77;6.50;;;;;;;9.56;56.08;99740.91;4361705;32;33087;-83
2022/04/20 06:10:30;;;;;;;8.02;6.20;;;;;;;9.71;55.23;99737.66;4341254;32;32557;-83
2022/04/20 06:13:05;;;;;;;8.20;4.93;;;;;;;9.84;55.06;99740.66;4352619;32;34554;-84
2022/04/20 06:15:34;;;;;;;7.03;5.70;;;;;;;9.86;55.60;99741.44;4340977;33;33546;-83
2022/04/20 06:18:03;;;;;;;7.95;5.55;;;;;;;9.92;54.65;99745.56;4351141;32;33320;-83
2022/04/20 06:20:33;;;;;;;8.40;6.05;;;;;;;10.11;54.26;99737.75;4360241;32;33135;-83
2022/04/20 06:23:02;;;;;;;7.50;5.95;;;;;;;10.35;53.44;99734.09;4350136;32;34403;-83
2022/04/20 06:25:32;;;;;;;5.75;4.70;;;;;;;10.20;54.10;99740.00;4365226;32;34171;-83
2022/04/20 06:30:37;;;;;;;6.85;5.43;;;;;;;10.87;51.61;99726.50;4360395;32;32898;-83
2022/04/20 06:33:10;;;;;;;5.57;4.75;;;;;;;10.98;51.31;99728.63;4360862;32;34770;-84
2022/04/20 06:35:40;;;;;;;6.50;4.55;;;;;;;11.20;49.90;99731.09;4348374;33;34308;-83
2022/04/20 06:38:10;;;;;;;7.03;5.18;;;;;;;11.29;50.00;99725.38;4360253;32;34081;-83
2022/04/20 06:40:40;;;;;;;6.93;4.37;;;;;;;11.15;49.54;99731.31;4365985;32;33954;-83
2022/04/20 06:43:10;;;;;;;4.82;4.35;;;;;;;11.25;50.13;99731.72;4348401;32;34054;-83
2022/04/20 06:45:39;;;;;;;7.18;4.50;;;;;;;11.75;50.00;99720.50;4339975;33;33248;-83
2022/04/20 06:48:11;;;;;;;8.35;4.65;;;;;;;11.91;48.65;99720.63;4362514;32;33599;-83
2022/04/20 06:50:41;;;;;;;6.50;4.80;;;;;;;12.03;47.41;99718.22;4352733;32;33204;-83
2022/04/20 06:58:56;;;;;;;;;;;;;;;12.03;48.23;99710.28;4354957;32;32755;-83
2022/04/20 07:01:24;;;;;;;4.70;3.95;;;;;;;12.37;47.41;99702.38;4341436;32;32612;-83
2022/04/20 07:03:53;;;;;;;5.65;3.67;;;;;;;12.24;45.93;99710.09;4342185;33;34013;-83
2022/04/20 07:06:22;;;;;;;5.30;4.00;;;;;;;12.28;46.19;99703.72;4341322;33;34571;-83
2022/04/20 07:08:54;;;;;;;4.57;3.78;;;;;;;12.46;46.31;99704.53;4350311;32;33781;-83
2022/04/20 07:11:28;;;;;;;4.47;3.75;;;;;;;12.66;46.24;99704.31;4350703;32;34592;-84
2022/04/20 07:16:36;;;;;;;5.75;3.25;;;;;;;12.84;44.24;99697.19;4364617;32;32683;-84
2022/04/20 07:19:05;;;;;;;6.62;3.87;;;;;;;13.03;42.44;99695.22;4368313;32;31977;-83
2022/04/20 07:21:33;;;;;;;5.35;4.35;;;;;;;12.87;41.66;99697.03;4356847;32;32291;-83
2022/04/20 07:24:04;;;;;;;7.30;3.97;;;;;;;12.70;43.92;99691.78;4344894;32;33723;-83
2022/04/20 07:26:40;;;;;;;3.92;3.55;;;;;;;12.57;43.43;99703.03;4355177;32;33110;-84
2022/04/20 07:29:09;;;;;;;4.62;4.00;;;;;;;12.98;43.14;99694.63;4347695;32;32835;-83
2022/04/20 07:31:39;;;;;;;5.20;4.20;;;;;;;13.25;43.86;99694.06;4358146;32;33243;-83
2022/04/20 07:34:08;;;;;;;5.40;4.22;;;;;;;13.64;42.65;99704.19;4337689;32;33154;-83
2022/04/20 07:36:38;;;;;;;5.75;3.78;;;;;;;13.86;41.21;99702.94;4353464;32;33356;-83
2022/04/20 07:39:10;;;;;;;12.43;5.60;;;;;;;14.06;40.73;99695.50;4367426;32;33985;-84
2022/04/20 07:41:46;;;;;;;7.57;5.00;;;;;;;13.75;42.69;99700.91;4356857;32;32220;-84
2022/04/20 07:44:16;;;;;;;7.03;4.37;;;;;;;13.68;43.27;99692.47;4355867;32;33913;-83
2022/04/20 07:46:46;;;;;;;8.23;4.03;;;;;;;14.07;40.89;99693.72;4357919;32;33865;-83
2022/04/20 07:52:02;;;;;;;5.25;3.47;;;;;;;13.76;42.39;99702.63;4353752;32;32589;-83
2022/04/20 07:54:31;;;;;;;5.90;4.03;;;;;;;13.52;40.41;99700.44;4350770;32;34452;-83
2022/04/20 07:59:38;;;;;;;7.07;4.35;;;;;;;14.25;38.88;99697.06;4340554;32;33515;-83
2022/04/20 08:02:08;;;;;;;4.80;4.32;;;;;;;14.43;38.55;99703.94;4358062;32;34138;-84
2022/04/20 08:04:48;;;;;;;4.40;3.97;;;;;;;14.72;38.76;99694.19;4365028;32;34946;-83
2022/04/20 08:07:20;;;;;;;6.57;4.07;;;;;;;14.43;39.58;99703.94;4354755;32;34175;-83
2022/04/20 08:09:50;;;;;;;5.18;4.68;;;;;;;14.70;38.69;99687.25;4343476;32;33273;-81
2022/04/20 08:12:24;;;;;;;5.97;4.05;;;;;;;14.48;38.88;99685.94;4332092;32;32350;-83
2022/04/20 08:14:54;;;;;;;5.37;3.85;;;;;;;14.65;38.09;99682.22;4352832;32;33836;-81
2022/04/20 08:17:35;;;;;;;4.55;3.78;;;;;;;14.95;37.28;99678.56;4367774;32;35451;-83
2022/04/20 08:20:10;;;;;;;4.72;3.90;;;;;;;15.08;36.44;99680.34;4365771;32;33310;-84
2022/04/20 08:22:42;;;;;;;5.00;4.47;;;;;;;15.34;36.06;99667.19;4328666;32;32927;-84
2022/04/20 08:25:13;;;;;;;4.93;3.72;;;;;;;15.20;37.71;99672.56;4351444;32;33895;-82
2022/04/20 08:27:46;;;;;;;3.97;3.55;;;;;;;15.28;36.98;99662.25;4352282;32;32849;-83
2022/04/20 08:30:17;;;;;;;7.75;4.10;;;;;;;15.49;35.24;99666.19;4356291;32;33665;-84
2022/04/20 08:32:48;;;;;;;3.92;3.00;;;;;;;15.41;35.14;99665.81;4343444;32;33418;-83
2022/04/20 08:35:19;;;;;;;5.35;3.58;;;;;;;15.65;34.45;99657.19;4364111;32;33659;-83
2022/04/20 08:37:48;;;;;;;4.70;3.50;;;;;;;15.47;35.17;99665.41;4344236;32;33888;-87
2022/04/20 08:40:16;;;;;;;4.25;3.67;;;;;;;15.36;35.70;99665.25;4340214;32;33290;-83
2022/04/20 08:42:46;;;;;;;3.90;3.25;;;;;;;14.95;34.90;99663.47;4349343;32;34563;-84
2022/04/20 08:45:19;;;;;;;4.45;3.47;;;;;;;14.81;33.25;99666.16;4353123;32;33688;-82
2022/04/20 08:47:50;;;;;;;4.72;3.50;;;;;;;15.27;34.00;99655.22;4353992;32;33937;-83
2022/04/20 08:50:20;;;;;;;3.78;3.42;;;;;;;15.46;32.60;99658.37;4355318;32;33153;-84
2022/04/20 08:52:50;;;;;;;6.40;3.70;;;;;;;15.47;34.05;99665.41;4356164;32;34085;-85
2022/04/20 08:55:19;;;;;;;3.42;2.97;;;;;;;15.75;33.75;99658.28;4354721;32;34706;-85
2022/04/20 08:57:52;;;;;;;6.45;4.28;;;;;;;15.59;32.69;99651.28;4341059;32;32530;-85
2022/04/20 09:00:27;;;;;;;5.20;3.75;;;;;;;16.01;33.42;99649.38;4343343;32;32714;-85
2022/04/20 09:03:00;;;;;;;4.35;3.45;;;;;;;15.72;33.39;99655.84;4353150;32;34806;-85
2022/04/20 09:05:34;;;;;;;3.25;2.90;;;;;;;15.79;31.43;99654.47;4355297;32;34849;-85
2022/04/20 09:08:13;;;;;;;4.28;3.55;;;;;;;15.50;34.44;99657.22;4341494;32;32873;-85
2022/04/20 09:10:45;;;;;;;4.95;3.37;;;;;;;15.76;33.60;99654.66;4352874;32;33247;-84
2022/04/20 09:13:14;;;;;;;3.12;2.90;;;;;;;15.85;33.52;99654.03;4353911;32;33234;-85
2022/04/20 09:15:43;;;;;;;7.43;2.85;;;;;;;16.16;33.65;99646.62;4361654;32;33707;-85
2022/04/20 09:18:11;;;;;;;3.87;3.25;;;;;;;16.24;30.73;99652.28;4364505;32;34710;-85
2022/04/20 09:20:41;;;;;;;5.85;3.65;;;;;;;16.24;31.47;99646.97;4354021;32;33912;-85
2022/04/20 09:23:14;;;;;;;5.00;4.28;;;;;;;16.25;31.82;99640.66;4355123;32;33818;-85
2022/04/20 09:25:49;;;;;;;6.35;3.92;;;;;;;15.93;31.67;99646.38;4342378;32;32420;-85
2022/04/20 09:28:18;;;;;;;5.62;3.87;;;;;;;16.06;31.39;99649.91;4354573;32;33271;-85
2022/04/20 09:30:50;;;;;;;4.45;3.55;;;;;;;16.56;29.79;99639.34;4342137;32;32197;-85
2022/04/20 09:33:20;;;;;;;4.40;3.97;;;;;;;16.62;29.06;99633.59;4341325;32;33542;-85
2022/04/20 09:35:53;;;;;;;4.65;3.80;;;;;;;16.12;32.83;99635.31;4364095;32;33629;-85
2022/04/20 09:38:22;;;;;;;5.40;3.83;;;;;;;16.18;31.64;99631.38;4353706;32;33341;-85
2022/04/20 09:41:10;;;;;;;4.62;3.67;;;;;;;16.29;31.85;99631.50;4356319;32;32255;-85
2022/04/20 09:43:38;;;;;;;4.53;3.80;;;;;;;15.72;33.47;99642.53;4355757;32;33137;-85
2022/04/20 09:49:12;;;;;;;7.90;4.25;;;;;;;15.88;31.32;99635.19;4353397;32;33756;-85
2022/04/20 09:51:46;;;;;;;8.27;4.03;;;;;;;15.17;32.01;99640.81;4356261;32;32336;-85
2022/04/20 09:54:26;;;;;;;5.53;4.20;;;;;;;16.14;30.80;99628.06;4355748;32;32802;-85
2022/04/20 09:57:12;;;;;;;4.47;4.00;;;;;;;16.04;32.50;99629.66;4362284;32;33703;-88
2022/04/20 10:00:00;;;;;;;6.62;3.97;;;;;;;15.81;32.95;99634.78;4344640;32;33584;-88
2022/04/20 10:02:52;;;;;;;7.37;4.68;;;;;;;16.08;33.32;99632.00;4355868;32;33042;-87
2022/04/20 10:05:26;;;;;;;5.95;4.85;;;;;;;16.63;31.66;99630.81;4368414;32;34176;-87
2022/04/20 10:08:01;;;;;;;4.93;4.00;;;;;;;16.43;32.45;99626.06;4356888;32;33722;-87
2022/04/20 10:10:30;;;;;;;4.75;3.97;;;;;;;16.56;30.36;99626.87;4365484;32;34348;-87
2022/04/20 10:12:58;;;;;;;4.53;3.90;;;;;;;16.98;30.81;99622.09;4355608;32;34281;-87
2022/04/20 10:23:36;;;;;;;4.43;3.40;;;;;;;17.96;27.94;99617.47;4359853;32;33431;-87
2022/04/20 10:26:07;;;;;;;5.37;3.75;;;;;;;17.78;27.02;99616.19;4358017;32;33859;-87
2022/04/20 10:28:49;;;;;;;4.03;3.62;;;;;;;17.87;27.46;99612.81;4345339;32;34857;-87
2022/04/20 10:31:29;;;;;;;3.83;3.45;;;;;;;17.67;26.62;99607.16;4342769;32;33255;-88
2022/04/20 10:33:59;;;;;;;3.55;3.17;;;;;;;17.43;27.83;99606.34;4357488;32;32449;-88
2022/04/20 10:36:31;;;;;;;4.00;3.60;;;;;;;17.41;31.18;99616.25;4350825;32;33922;-87
2022/04/20 10:39:24;;;;;;;4.25;3.60;;;;;;;17.67;30.02;99606.31;4356064;32;32794;-88
2022/04/20 10:42:15;;;;;;;5.18;4.55;;;;;;;17.44;30.51;99610.72;4346265;32;31623;-88
2022/04/20 10:44:55;;;;;;;3.35;2.97;;;;;;;17.44;28.35;99610.72;4367831;32;33903;-87
2022/04/20 10:47:32;;;;;;;3.30;2.92;;;;;;;17.91;24.40;99598.25;4368913;32;33594;-87
2022/04/20 10:52:57;;;;;;;8.38;4.75;;;;;;;17.36;27.84;99605.94;4365946;32;34219;-87
2022/04/20 10:55:31;;;;;;;4.03;3.62;;;;;;;16.83;29.11;99601.91;4353910;32;33100;-87
2022/04/20 10:58:16;;;;;;;5.65;3.90;;;;;;;16.93;29.15;99604.75;4357713;32;33536;-88
2022/04/20 11:01:18;;;;;;;4.72;3.85;;;;;;;17.38;28.37;99600.50;4343768;32;34376;-88
2022/04/20 11:03:55;;;;;;;5.45;3.97;;;;;;;17.65;28.31;99593.06;4356998;32;34211;-87
2022/04/20 11:06:27;;;;;;;4.53;3.80;;;;;;;18.40;26.98;99583.72;4357006;32;33494;-86
2022/04/20 11:09:00;;;;;;;4.20;3.42;;;;;;;18.48;26.38;99583.13;4369646;32;33811;-88
2022/04/20 11:20:15;;;;;;;7.97;4.35;;;;;;;18.44;25.58;99585.19;4351676;32;33913;-87
2022/04/20 11:22:47;;;;;;;6.00;4.62;;;;;;;18.07;26.55;99593.41;4347875;32;33286;-86
2022/04/20 11:25:18;;;;;;;3.75;3.12;;;;;;;17.98;26.12;99588.78;4354338;32;34567;-86
2022/04/20 11:32:20;;;;;;;3.97;3.37;;;;;;;17.62;26.20;99579.97;4379343;32;35562;-86
2022/04/20 11:35:11;;;;;;;10.80;4.03;;;;;;;17.05;28.03;99579.84;4354081;32;32906;-86
2022/04/20 11:44:41;;;;;;;3.87;3.45;;;;;;;16.89;27.32;99582.78;4351560;32;32398;-86
2022/04/20 11:47:11;;;;;;;5.78;3.25;;;;;;;16.74;27.56;99575.91;4338848;32;34154;-86
2022/04/20 11:49:42;;;;;;;6.00;4.15;;;;;;;17.30;27.89;99577.03;4338155;32;33331;-86
2022/04/20 11:52:14;;;;;;;6.75;4.45;;;;;;;17.34;27.72;99577.66;4350481;32;34085;-86
2022/04/20 11:54:47;;;;;;;6.12;4.93;;;;;;;17.21;27.71;99582.22;4351263;32;33917;-87
2022/04/20 11:57:23;;;;;;;6.12;4.43;;;;;;;17.59;26.31;99571.31;4351343;32;33702;-87
2022/04/20 11:59:52;;;;;;;6.00;4.65;;;;;;;17.77;26.64;99585.12;4338438;32;35407;-86
2022/04/20 12:02:26;;;;;;;5.87;5.20;;;;;;;17.53;25.82;99572.66;4351124;32;34064;-87
2022/04/20 12:05:08;;;;;;;5.20;4.70;;;;;;;17.38;26.58;99569.31;4351138;32;34598;-86
2022/04/20 12:07:44;;;;;;;5.78;4.57;;;;;;;16.78;29.66;99574.72;4350878;32;34565;-86
2022/04/20 12:12:59;;;;;;;6.07;4.50;;;;;;;17.21;26.80;99566.22;4352261;32;32915;-86
2022/04/20 12:15:36;;;;;;;6.10;4.60;;;;;;;17.91;25.45;99558.19;4339594;32;33838;-86
2022/04/20 12:18:08;;;;;;;7.50;4.70;;;;;;;17.75;25.75;99563.00;4350356;32;34207;-86
2022/04/20 12:20:46;;;;;;;9.48;4.95;;;;;;;17.80;25.69;99559.03;4350340;32;35499;-86
2022/04/20 12:23:21;;;;;;;5.50;4.50;;;;;;;18.00;24.93;99560.16;4339802;32;34345;-85
2022/04/20 12:25:54;;;;;;;7.75;5.35;;;;;;;17.43;28.44;99555.62;4338226;32;32639;-86
2022/04/20 12:28:36;;;;;;;6.57;5.03;;;;;;;18.12;25.33;99542.28;4350548;32;33889;-86
2022/04/20 12:31:08;;;;;;;6.25;4.68;;;;;;;17.74;28.51;99537.28;4339662;32;33781;-86
2022/04/20 12:33:37;;;;;;;6.65;5.10;;;;;;;18.15;26.22;99537.56;4350134;32;31699;-85
2022/04/20 12:36:11;;;;;;;8.90;4.75;;;;;;;18.44;25.27;99537.06;4350934;32;33224;-83
2022/04/20 12:41:41;;;;;;;5.43;4.30;;;;;;;18.58;24.28;99526.09;4349118;32;32580;-86
2022/04/20 12:44:34;;;;;;;7.15;4.55;;;;;;;19.01;25.59;99529.78;4364296;32;33363;-86
2022/04/20 12:47:16;;;;;;;5.87;4.68;;;;;;;19.45;23.84;99529.56;4358212;32;33508;-86
2022/04/20 12:49:53;;;;;;;4.78;4.25;;;;;;;19.00;26.86;99531.62;4360452;32;33310;-83
2022/04/20 12:52:29;;;;;;;5.10;4.60;;;;;;;19.45;23.20;99534.09;4354430;32;33414;-86
2022/04/20 12:55:09;;;;;;;5.15;4.62;;;;;;;19.06;23.82;99533.78;4342562;32;33510;-83
2022/04/20 13:03:38;;;;;;;5.90;5.30;;;;;;;19.18;24.09;99527.41;4338037;32;34716;-85
2022/04/20 13:06:13;;;;;;;6.90;5.28;;;;;;;19.17;24.20;99539.06;4365229;32;33182;-86
2022/04/20 13:08:53;;;;;;;5.65;4.78;;;;;;;19.36;26.79;99524.16;4340868;32;33582;-87
2022/04/20 13:11:30;;;;;;;4.68;4.18;;;;;;;19.42;22.89;99532.53;4362285;32;32258;-85
2022/04/20 13:14:09;;;;;;;5.50;4.50;;;;;;;19.13;25.32;99521.59;4323429;32;452724;-87
2022/04/20 13:16:37;;;;;;;6.25;4.30;;;;;;;18.97;24.79;99526.50;4343056;32;32351;-87